createdAt,value
2023-01-29T00:01:51.865Z,0.70
2023-01-29T00:04:18.658Z,0.70
2023-01-29T00:06:45.312Z,0.70
2023-01-29T00:09:12.809Z,0.70
2023-01-29T00:11:40.208Z,0.80
2023-01-29T00:14:07.673Z,0.80
2023-01-29T00:16:34.326Z,0.80
2023-01-29T00:19:02.459Z,0.70
2023-01-29T00:21:31.051Z,0.70
2023-01-29T00:23:58.558Z,0.70
2023-01-29T00:26:26.200Z,0.70
2023-01-29T00:28:53.108Z,0.80
2023-01-29T00:31:23.025Z,0.70
2023-01-29T00:33:50.131Z,0.70
2023-01-29T00:36:19.116Z,0.80
2023-01-29T00:38:54.456Z,0.80
2023-01-29T00:41:41.572Z,0.80
2023-01-29T00:44:28.561Z,0.70
2023-01-29T00:46:55.280Z,0.60
2023-01-29T00:49:22.109Z,0.60
2023-01-29T00:52:09.002Z,0.60
2023-01-29T00:54:36.568Z,0.60
2023-01-29T00:57:04.178Z,0.70
2023-01-29T00:59:31.907Z,0.70
2023-01-29T01:02:17.621Z,0.70
2023-01-29T01:04:44.335Z,0.70
2023-01-29T01:09:55.904Z,0.70
2023-01-29T01:12:22.961Z,0.60
2023-01-29T01:14:50.318Z,0.60
2023-01-29T01:17:17.386Z,0.70
2023-01-29T01:19:44.329Z,0.70
2023-01-29T01:22:11.255Z,0.70
2023-01-29T01:24:38.973Z,0.60
2023-01-29T01:27:05.989Z,0.60
2023-01-29T01:29:33.578Z,0.60
2023-01-29T01:32:00.734Z,0.60
2023-01-29T01:34:28.052Z,0.60
2023-01-29T01:36:56.248Z,0.60
2023-01-29T01:39:24.102Z,0.60
2023-01-29T01:41:54.864Z,0.60
2023-01-29T01:45:00.602Z,0.60
2023-01-29T01:47:33.881Z,0.70
2023-01-29T01:50:14.607Z,0.70
2023-01-29T01:52:47.729Z,0.70
2023-01-29T01:55:20.029Z,0.70
2023-01-29T01:57:48.868Z,0.70
2023-01-29T02:00:18.218Z,0.70
2023-01-29T02:03:05.170Z,0.70
2023-01-29T02:05:52.750Z,0.70
2023-01-29T02:08:54.286Z,0.70
2023-01-29T02:11:20.976Z,0.70
2023-01-29T02:13:53.539Z,0.70
2023-01-29T02:16:25.749Z,0.70
2023-01-29T02:18:53.076Z,0.70
2023-01-29T02:21:44.447Z,0.70
2023-01-29T02:24:30.564Z,0.70
2023-01-29T02:27:13.617Z,0.70
2023-01-29T02:29:52.375Z,0.70
2023-01-29T02:32:32.885Z,0.70
2023-01-29T02:35:25.987Z,0.70
2023-01-29T02:38:02.678Z,0.70
2023-01-29T02:40:38.448Z,0.70
2023-01-29T02:43:20.967Z,0.80
2023-01-29T02:45:53.094Z,0.80
2023-01-29T02:48:22.272Z,0.80
2023-01-29T02:50:57.928Z,0.70
2023-01-29T02:53:27.094Z,0.70
2023-01-29T02:56:00.028Z,0.70
2023-01-29T02:59:01.895Z,0.70
2023-01-29T03:01:35.839Z,0.60
2023-01-29T03:04:12.908Z,0.60
2023-01-29T03:06:45.388Z,0.70
2023-01-29T03:09:29.956Z,0.70
2023-01-29T03:12:04.320Z,0.70
2023-01-29T03:14:55.090Z,0.70
2023-01-29T03:17:27.293Z,0.70
2023-01-29T03:19:54.536Z,0.70
2023-01-29T03:22:23.646Z,0.70
2023-01-29T03:25:13.792Z,0.70
2023-01-29T03:28:10.405Z,0.60
2023-01-29T03:31:18.635Z,0.60
2023-01-29T03:34:24.088Z,0.70
2023-01-29T03:37:00.070Z,0.60
2023-01-29T03:39:28.711Z,0.70
2023-01-29T03:42:23.622Z,0.70
2023-01-29T03:45:09.550Z,0.60
2023-01-29T03:48:04.068Z,0.60
2023-01-29T03:51:07.056Z,0.60
2023-01-29T03:53:47.385Z,0.60
2023-01-29T03:56:35.138Z,0.60
2023-01-29T03:59:21.005Z,0.60
2023-01-29T04:02:27.709Z,0.50
2023-01-29T04:05:00.519Z,0.50
2023-01-29T04:07:33.220Z,0.50
2023-01-29T04:10:18.125Z,0.50
2023-01-29T04:12:55.037Z,0.60
2023-01-29T04:15:24.102Z,0.60
2023-01-29T04:17:53.073Z,0.60
2023-01-29T04:20:26.073Z,0.60
2023-01-29T04:22:53.360Z,0.60
2023-01-29T04:25:28.865Z,0.50
2023-01-29T04:28:06.480Z,0.50
2023-01-29T04:30:42.369Z,0.50
2023-01-29T04:33:23.222Z,0.50
2023-01-29T04:36:18.080Z,0.60
2023-01-29T04:39:06.024Z,0.60
2023-01-29T04:42:07.201Z,0.50
2023-01-29T04:44:39.480Z,0.60
2023-01-29T04:47:24.757Z,0.60
2023-01-29T04:50:10.358Z,0.60
2023-01-29T04:53:07.375Z,0.60
2023-01-29T04:56:12.401Z,0.60
2023-01-29T04:58:50.628Z,0.70
2023-01-29T05:01:19.757Z,0.60
2023-01-29T05:03:51.285Z,0.60
2023-01-29T05:06:18.977Z,0.60
2023-01-29T05:08:47.472Z,0.60
2023-01-29T05:11:14.454Z,0.60
2023-01-29T05:13:43.012Z,0.60
2023-01-29T05:16:21.622Z,0.60
2023-01-29T05:18:48.479Z,0.60
2023-01-29T05:21:15.176Z,0.60
2023-01-29T05:23:52.976Z,0.60
2023-01-29T05:26:40.074Z,0.60
2023-01-29T05:29:06.765Z,0.60
2023-01-29T05:31:33.517Z,0.60
2023-01-29T05:34:00.370Z,0.60
2023-01-29T05:36:27.216Z,0.60
2023-01-29T05:38:53.871Z,0.60
2023-01-29T05:41:21.032Z,0.50
2023-01-29T05:43:47.764Z,0.50
2023-01-29T05:46:14.495Z,0.60
2023-01-29T05:48:41.205Z,0.60
2023-01-29T05:51:07.873Z,0.60
2023-01-29T05:53:34.584Z,0.60
2023-01-29T05:56:02.990Z,0.60
2023-01-29T05:58:33.328Z,0.60
2023-01-29T06:01:16.213Z,0.60
2023-01-29T06:03:43.752Z,0.60
2023-01-29T06:06:10.796Z,0.60
2023-01-29T06:08:37.724Z,0.60
2023-01-29T06:11:07.084Z,0.60
2023-01-29T06:13:33.854Z,0.50
2023-01-29T06:16:00.675Z,0.50
2023-01-29T06:18:27.305Z,0.50
2023-01-29T06:20:54.018Z,0.40
2023-01-29T06:23:20.655Z,0.50
2023-01-29T06:25:47.316Z,0.50
2023-01-29T06:28:13.987Z,0.50
2023-01-29T06:30:40.678Z,0.50
2023-01-29T06:33:07.377Z,0.50
2023-01-29T06:35:34.821Z,0.50
2023-01-29T06:38:01.806Z,0.50
2023-01-29T06:40:28.498Z,0.50
2023-01-29T06:42:55.151Z,0.50
2023-01-29T06:45:21.843Z,0.40
2023-01-29T06:47:48.541Z,0.40
2023-01-29T06:50:15.732Z,0.40
2023-01-29T06:52:42.542Z,0.30
2023-01-29T06:55:09.579Z,0.30
2023-01-29T06:57:36.375Z,0.20
2023-01-29T07:00:04.227Z,0.20
2023-01-29T07:02:30.937Z,0.20
2023-01-29T07:04:57.709Z,0.20
2023-01-29T07:07:24.477Z,0.10
2023-01-29T07:09:51.099Z,0.10
2023-01-29T07:12:17.729Z,0.20
2023-01-29T07:14:44.424Z,0.20
2023-01-29T07:17:11.108Z,0.20
2023-01-29T07:19:37.812Z,0.20
2023-01-29T07:22:05.654Z,0.20
2023-01-29T07:24:32.776Z,0.20
2023-01-29T07:26:59.541Z,0.20
2023-01-29T07:29:26.531Z,0.20
2023-01-29T07:31:53.277Z,0.20
2023-01-29T07:34:20.037Z,0.20
2023-01-29T07:36:46.716Z,0.20
2023-01-29T07:39:13.976Z,0.20
2023-01-29T07:41:40.665Z,0.40
2023-01-29T07:44:15.740Z,0.30
2023-01-29T07:46:42.423Z,0.30
2023-01-29T07:49:09.210Z,0.30
2023-01-29T07:51:35.858Z,0.30
2023-01-29T07:54:02.524Z,0.30
2023-01-29T07:56:29.409Z,0.30
2023-01-29T07:58:56.425Z,0.40
2023-01-29T08:01:23.165Z,0.40
2023-01-29T08:03:51.348Z,0.40
2023-01-29T08:06:18.302Z,0.40
2023-01-29T08:08:44.981Z,0.50
2023-01-29T08:11:11.599Z,0.60
2023-01-29T08:13:38.255Z,0.50
2023-01-29T08:16:05.444Z,0.60
2023-01-29T08:18:32.157Z,0.60
2023-01-29T08:21:03.177Z,0.50
2023-01-29T08:23:30.358Z,0.50
2023-01-29T08:25:57.107Z,0.60
2023-01-29T08:28:23.911Z,0.60
2023-01-29T08:30:50.593Z,0.60
2023-01-29T08:33:19.468Z,0.60
2023-01-29T08:35:51.265Z,0.70
2023-01-29T08:38:18.329Z,0.60
2023-01-29T08:40:45.209Z,0.70
2023-01-29T08:43:13.112Z,0.80
2023-01-29T08:45:43.798Z,0.80
2023-01-29T08:48:11.004Z,0.80
2023-01-29T08:50:38.252Z,0.80
2023-01-29T08:53:10.025Z,0.90
2023-01-29T08:55:38.551Z,0.80
2023-01-29T08:58:06.695Z,0.90
2023-01-29T09:00:34.937Z,0.80
2023-01-29T09:03:01.831Z,0.90
2023-01-29T09:05:28.963Z,0.90
2023-01-29T09:07:59.274Z,0.90
2023-01-29T09:10:27.373Z,0.90
2023-01-29T09:12:54.077Z,0.90
2023-01-29T09:15:20.749Z,0.90
2023-01-29T09:17:49.333Z,0.90
2023-01-29T09:20:16.561Z,0.90
2023-01-29T09:22:43.928Z,0.90
2023-01-29T09:25:10.965Z,0.90
2023-01-29T09:27:37.801Z,1.00
2023-01-29T09:30:05.990Z,1.00
2023-01-29T09:35:21.797Z,1.20
2023-01-29T09:37:49.570Z,1.20
2023-01-29T09:40:41.104Z,1.20
2023-01-29T09:44:00.991Z,1.30
2023-01-29T09:46:38.497Z,1.30
2023-01-29T09:49:16.360Z,1.30
2023-01-29T09:51:51.276Z,1.30
2023-01-29T09:54:31.117Z,1.30
2023-01-29T09:56:58.390Z,1.30
2023-01-29T09:59:29.696Z,1.40
2023-01-29T10:02:15.011Z,1.50
2023-01-29T10:05:01.190Z,1.60
2023-01-29T10:07:55.582Z,1.70
2023-01-29T10:10:31.370Z,1.70
2023-01-29T10:13:29.456Z,1.70
2023-01-29T10:16:25.784Z,1.80
2023-01-29T10:19:10.718Z,1.70
2023-01-29T10:21:57.122Z,1.80
2023-01-29T10:24:41.810Z,1.80
2023-01-29T10:27:16.471Z,1.70
2023-01-29T10:29:45.071Z,1.80
2023-01-29T10:32:18.505Z,1.70
2023-01-29T10:34:54.884Z,1.70
2023-01-29T10:37:30.946Z,1.80
2023-01-29T10:39:59.998Z,1.80
2023-01-29T10:42:44.678Z,1.80
2023-01-29T10:45:40.517Z,1.80
2023-01-29T10:48:34.383Z,1.70
2023-01-29T10:51:22.805Z,1.70
2023-01-29T10:54:04.337Z,1.70
2023-01-29T10:57:04.679Z,1.70
2023-01-29T11:00:07.088Z,1.70
2023-01-29T11:02:34.439Z,1.60
2023-01-29T11:05:01.262Z,1.60
2023-01-29T11:07:28.471Z,1.70
2023-01-29T11:10:02.659Z,1.60
2023-01-29T11:12:33.332Z,1.60
2023-01-29T11:15:29.603Z,1.50
2023-01-29T11:18:06.946Z,1.60
2023-01-29T11:20:33.888Z,1.60
2023-01-29T11:23:00.626Z,1.60
2023-01-29T11:25:29.716Z,1.60
2023-01-29T11:28:00.833Z,1.60
2023-01-29T11:30:39.230Z,1.70
2023-01-29T11:33:08.295Z,1.70
2023-01-29T11:35:36.527Z,1.80
2023-01-29T11:38:16.634Z,1.80
2023-01-29T11:40:43.678Z,1.80
2023-01-29T11:43:19.994Z,1.80
2023-01-29T11:45:51.983Z,1.80
2023-01-29T11:48:21.539Z,1.90
2023-01-29T11:50:53.591Z,1.90
2023-01-29T11:53:53.421Z,1.80
2023-01-29T11:56:39.431Z,1.80
2023-01-29T11:59:16.183Z,1.90
2023-01-29T12:01:42.884Z,1.90
2023-01-29T12:04:20.479Z,1.90
2023-01-29T12:06:51.976Z,2.00
2023-01-29T12:09:22.315Z,2.00
2023-01-29T12:11:49.171Z,2.10
2023-01-29T12:14:30.011Z,2.00
2023-01-29T12:17:26.234Z,2.00
2023-01-29T12:20:04.401Z,2.00
2023-01-29T12:22:45.025Z,2.00
2023-01-29T12:25:20.337Z,2.00
2023-01-29T12:28:03.807Z,2.00
2023-01-29T12:30:47.991Z,2.10
2023-01-29T12:33:20.357Z,2.10
2023-01-29T12:36:10.886Z,2.20
2023-01-29T12:38:37.801Z,2.20
2023-01-29T12:41:13.150Z,2.30
2023-01-29T12:43:46.593Z,2.30
2023-01-29T12:46:22.244Z,2.20
2023-01-29T12:48:50.611Z,2.30
2023-01-29T12:51:20.452Z,2.30
2023-01-29T12:54:02.316Z,2.30
2023-01-29T12:56:37.118Z,2.30
2023-01-29T12:59:18.220Z,2.40
2023-01-29T13:02:07.107Z,2.40
2023-01-29T13:04:42.322Z,2.30
2023-01-29T13:07:18.768Z,2.30
2023-01-29T13:09:51.179Z,2.30
2023-01-29T13:12:19.323Z,2.40
2023-01-29T13:15:03.570Z,2.50
2023-01-29T13:17:43.726Z,2.50
2023-01-29T13:20:24.893Z,2.50
2023-01-29T13:22:54.267Z,2.50
2023-01-29T13:25:21.477Z,2.60
2023-01-29T13:27:49.013Z,2.60
2023-01-29T13:30:31.595Z,2.60
2023-01-29T13:33:09.426Z,2.60
2023-01-29T13:35:42.373Z,2.60
2023-01-29T13:38:38.546Z,2.70
2023-01-29T13:41:08.647Z,2.70
2023-01-29T13:43:41.605Z,2.70
2023-01-29T13:46:14.630Z,2.70
2023-01-29T13:48:43.624Z,2.70
2023-01-29T13:51:16.902Z,2.70
2023-01-29T13:53:56.353Z,2.70
2023-01-29T13:56:35.241Z,2.70
2023-01-29T13:59:05.253Z,2.60
2023-01-29T14:01:47.179Z,2.50
2023-01-29T14:04:21.570Z,2.60
2023-01-29T14:06:51.533Z,2.50
2023-01-29T14:09:36.792Z,2.50
2023-01-29T14:12:05.390Z,2.60
2023-01-29T14:15:04.866Z,2.60
2023-01-29T14:17:31.667Z,2.60
2023-01-29T14:20:04.371Z,2.50
2023-01-29T14:22:33.895Z,2.50
2023-01-29T14:25:04.856Z,2.50
2023-01-29T14:27:32.474Z,2.40
2023-01-29T14:30:02.748Z,2.50
2023-01-29T14:32:30.052Z,2.50
2023-01-29T14:35:19.514Z,2.50
2023-01-29T14:37:49.985Z,2.40
2023-01-29T14:40:20.543Z,2.40
2023-01-29T14:42:59.393Z,2.50
2023-01-29T14:45:32.268Z,2.40
2023-01-29T14:48:00.581Z,2.40
2023-01-29T14:50:31.710Z,2.40
2023-01-29T14:53:36.531Z,2.50
2023-01-29T14:56:27.899Z,2.50
2023-01-29T14:59:02.769Z,2.40
2023-01-29T15:01:37.438Z,2.40
2023-01-29T15:04:14.521Z,2.40
2023-01-29T15:06:52.952Z,2.40
2023-01-29T15:09:36.430Z,2.40
2023-01-29T15:12:03.748Z,2.40
2023-01-29T15:14:35.525Z,2.30
2023-01-29T15:17:08.908Z,2.30
2023-01-29T15:19:44.448Z,2.30
2023-01-29T15:22:21.841Z,2.30
2023-01-29T15:25:04.650Z,2.30
2023-01-29T15:27:31.728Z,2.30
2023-01-29T15:30:02.521Z,2.30
2023-01-29T15:32:39.634Z,2.30
2023-01-29T15:35:20.191Z,2.20
2023-01-29T15:38:00.680Z,2.20
2023-01-29T15:40:28.569Z,2.20
2023-01-29T15:42:55.272Z,2.20
2023-01-29T15:45:27.394Z,2.10
2023-01-29T15:47:55.864Z,2.20
2023-01-29T15:50:23.016Z,2.10
2023-01-29T15:52:53.226Z,2.20
2023-01-29T15:55:23.229Z,2.10
2023-01-29T15:57:50.736Z,2.10
2023-01-29T16:00:24.311Z,2.10
2023-01-29T16:02:51.433Z,2.10
2023-01-29T16:05:22.018Z,2.10
2023-01-29T16:07:50.738Z,2.10
2023-01-29T16:10:24.006Z,2.10
2023-01-29T16:12:51.901Z,2.10
2023-01-29T16:15:30.453Z,2.10
2023-01-29T16:17:57.896Z,2.00
2023-01-29T16:20:52.459Z,2.10
2023-01-29T16:23:24.716Z,2.00
2023-01-29T16:25:51.922Z,2.00
2023-01-29T16:28:19.603Z,2.00
2023-01-29T16:30:46.481Z,2.00
2023-01-29T16:33:17.294Z,2.00
2023-01-29T16:35:52.050Z,2.00
2023-01-29T16:38:32.558Z,2.00
2023-01-29T16:41:13.224Z,2.00
2023-01-29T16:43:58.915Z,2.00
2023-01-29T16:46:33.619Z,2.00
2023-01-29T16:49:00.757Z,2.00
2023-01-29T16:51:30.806Z,2.00
2023-01-29T16:53:57.425Z,2.00
2023-01-29T16:56:25.974Z,2.10
2023-01-29T16:58:53.973Z,2.00
2023-01-29T17:01:22.885Z,2.00
2023-01-29T17:03:58.960Z,2.10
2023-01-29T17:06:27.263Z,2.00
2023-01-29T17:08:54.654Z,2.00
2023-01-29T17:11:30.071Z,2.00
2023-01-29T17:13:57.385Z,2.10
2023-01-29T17:16:31.697Z,2.00
2023-01-29T17:18:59.765Z,2.10
2023-01-29T17:21:28.211Z,2.10
2023-01-29T17:23:54.911Z,2.10
2023-01-29T17:26:22.608Z,2.10
2023-01-29T17:28:50.845Z,2.10
2023-01-29T17:31:17.679Z,2.10
2023-01-29T17:33:45.793Z,2.10
2023-01-29T17:36:15.231Z,2.10
2023-01-29T17:38:42.570Z,2.10
2023-01-29T17:41:19.741Z,2.10
2023-01-29T17:43:46.619Z,2.00
2023-01-29T17:46:15.740Z,2.00
2023-01-29T17:48:42.699Z,2.00
2023-01-29T17:51:13.627Z,2.00
2023-01-29T17:53:46.038Z,1.90
2023-01-29T17:56:27.510Z,1.90
2023-01-29T17:58:54.165Z,1.80
2023-01-29T18:01:20.933Z,1.70
2023-01-29T18:03:47.617Z,1.70
2023-01-29T18:06:23.658Z,1.70
2023-01-29T18:08:51.231Z,1.70
2023-01-29T18:11:17.951Z,1.70
2023-01-29T18:13:44.563Z,1.60
2023-01-29T18:16:11.222Z,1.60
2023-01-29T18:18:37.899Z,1.60
2023-01-29T18:21:04.821Z,1.60
2023-01-29T18:23:31.744Z,1.50
2023-01-29T18:25:58.483Z,1.60
2023-01-29T18:28:25.650Z,1.50
2023-01-29T18:30:52.594Z,1.50
2023-01-29T18:33:19.400Z,1.50
2023-01-29T18:35:50.325Z,1.50
2023-01-29T18:38:17.736Z,1.50
2023-01-29T18:40:44.484Z,1.40
2023-01-29T18:43:11.165Z,1.40
2023-01-29T18:45:37.872Z,1.40
2023-01-29T18:48:05.120Z,1.40
2023-01-29T18:50:31.958Z,1.40
2023-01-29T18:52:59.094Z,1.40
2023-01-29T18:55:26.698Z,1.50
2023-01-29T18:58:28.001Z,1.50
2023-01-29T19:00:40.826Z,1.50
2023-01-29T19:03:07.495Z,1.50
2023-01-29T19:05:34.433Z,1.60
2023-01-29T19:08:01.773Z,1.50
2023-01-29T19:10:28.499Z,1.50
2023-01-29T19:12:55.142Z,1.50
2023-01-29T19:15:22.830Z,1.50
2023-01-29T19:17:53.112Z,1.50
2023-01-29T19:20:19.877Z,1.60
2023-01-29T19:22:46.720Z,1.50
2023-01-29T19:25:13.656Z,1.50
2023-01-29T19:27:40.342Z,1.50
2023-01-29T19:30:08.525Z,1.50
2023-01-29T19:32:35.292Z,1.50
2023-01-29T19:35:02.207Z,1.50
2023-01-29T19:37:30.816Z,1.50
2023-01-29T19:39:57.742Z,1.60
2023-01-29T19:42:25.690Z,1.60
2023-01-29T19:44:53.314Z,1.60
2023-01-29T19:47:20.947Z,1.50
2023-01-29T19:49:47.701Z,1.50
2023-01-29T19:52:51.186Z,1.50
2023-01-29T19:55:19.737Z,1.50
2023-01-29T19:57:47.214Z,1.50
2023-01-29T20:00:15.483Z,1.50
2023-01-29T20:02:42.243Z,1.50
2023-01-29T20:05:11.942Z,1.50
2023-01-29T20:07:40.014Z,1.50
2023-01-29T20:10:09.619Z,1.50
2023-01-29T20:12:36.251Z,1.60
2023-01-29T20:15:03.497Z,1.60
2023-01-29T20:17:30.512Z,1.60
2023-01-29T20:19:57.167Z,1.60
2023-01-29T20:22:25.828Z,1.70
2023-01-29T20:24:52.446Z,1.70
2023-01-29T20:27:19.174Z,1.70
2023-01-29T20:29:46.540Z,1.70
2023-01-29T20:32:14.493Z,1.80
2023-01-29T20:34:41.484Z,1.80
2023-01-29T20:37:08.147Z,1.90
2023-01-29T20:39:34.834Z,1.90
2023-01-29T20:42:01.491Z,1.90
2023-01-29T20:44:28.129Z,1.90
2023-01-29T20:46:54.915Z,1.90
2023-01-29T20:49:21.764Z,2.00
2023-01-29T20:51:51.608Z,2.00
2023-01-29T20:54:18.357Z,2.00
2023-01-29T20:56:45.456Z,2.00
2023-01-29T20:59:13.750Z,2.10
2023-01-29T21:01:41.017Z,2.10
2023-01-29T21:04:07.802Z,2.10
2023-01-29T21:06:34.503Z,2.10
2023-01-29T21:09:01.163Z,2.10
2023-01-29T21:11:28.534Z,2.10
2023-01-29T21:13:57.668Z,2.10
2023-01-29T21:16:26.090Z,2.20
2023-01-29T21:18:55.863Z,2.20
2023-01-29T21:21:22.646Z,2.20
2023-01-29T21:23:49.389Z,2.20
2023-01-29T21:26:16.055Z,2.20
2023-01-29T21:28:42.700Z,2.20
2023-01-29T21:31:11.696Z,2.30
2023-01-29T21:33:38.704Z,2.20
2023-01-29T21:36:05.802Z,2.30
2023-01-29T21:38:32.508Z,2.30
2023-01-29T21:41:01.031Z,2.40
2023-01-29T21:43:27.686Z,2.40
2023-01-29T21:45:58.745Z,2.40
2023-01-29T21:48:26.308Z,2.40
2023-01-29T21:50:53.037Z,2.40
2023-01-29T21:53:19.799Z,2.40
2023-01-29T21:55:47.145Z,2.50
2023-01-29T21:58:14.652Z,2.40
2023-01-29T22:00:41.527Z,2.50
2023-01-29T22:03:08.233Z,2.40
2023-01-29T22:05:35.369Z,2.50
2023-01-29T22:08:02.465Z,2.50
2023-01-29T22:10:30.540Z,2.50
2023-01-29T22:12:59.810Z,2.50
2023-01-29T22:15:27.327Z,2.60
2023-01-29T22:17:54.157Z,2.60
2023-01-29T22:20:29.449Z,2.60
2023-01-29T22:23:00.376Z,2.60
2023-01-29T22:25:27.112Z,2.70
2023-01-29T22:27:53.882Z,2.70
2023-01-29T22:30:21.627Z,2.80
2023-01-29T22:32:48.648Z,2.80
2023-01-29T22:35:15.411Z,2.80
2023-01-29T22:37:42.120Z,2.90
2023-01-29T22:40:09.659Z,2.90
2023-01-29T22:42:36.476Z,2.90
2023-01-29T22:45:03.283Z,2.90
2023-01-29T22:47:32.562Z,2.90
2023-01-29T22:49:59.323Z,2.90
2023-01-29T22:52:27.750Z,2.90
2023-01-29T22:54:54.377Z,3.00
2023-01-29T22:57:21.101Z,2.90
2023-01-29T22:59:47.730Z,3.00
2023-01-29T23:02:14.424Z,3.00
2023-01-29T23:04:41.186Z,3.00
2023-01-29T23:07:07.912Z,2.90
2023-01-29T23:09:34.528Z,2.90
2023-01-29T23:12:01.377Z,2.90
2023-01-29T23:14:28.110Z,2.90
2023-01-29T23:16:54.851Z,2.90
2023-01-29T23:19:21.627Z,2.90
2023-01-29T23:21:48.443Z,2.90
2023-01-29T23:24:15.149Z,2.90
2023-01-29T23:27:00.668Z,2.90
2023-01-29T23:29:27.367Z,2.90
2023-01-29T23:31:54.069Z,2.90
2023-01-29T23:34:20.774Z,3.00
2023-01-29T23:36:47.598Z,3.00
2023-01-29T23:39:14.841Z,3.00
2023-01-29T23:41:41.533Z,3.00
2023-01-29T23:44:08.230Z,3.00
2023-01-29T23:46:35.119Z,3.00
2023-01-29T23:49:01.831Z,3.00
2023-01-29T23:51:28.602Z,3.10
2023-01-29T23:53:55.344Z,3.10
2023-01-29T23:56:22.278Z,3.10
2023-01-29T23:58:53.365Z,3.10
